Warsaw, Virginia
Current Conditions -  °F | °C
As of 10:35 PM on Monday 22 Dec 2014 (Local Time) from KXSA Reporting Station
Light Rain Light Rain  
Wind Chill: 34°   Ceiling: 200
Heat Index: 37°   Visibility: 1.5mi
Dew Point: 35°   Wind: 5mph
Humidity: 91%   Direction: 20°NNE
Pressure: 30.06"   Gusts: NA
Location:  37.96°N, 76.76°W
Report Text: KXSA 230335Z AUTO 02004KT 1 1/2SM -RA OVC002 03/02 A3006 RMK AO2 T00300016
Loading
Personal Weather Stations






























Interactive Weather Map New forecast layout! Learn more

10-Day Weather Forecast

Advertisements
Track Severe Weather on mobile